sensor_id;sensor_type;location;lat;lon;timestamp;pressure;altitude;pressure_sealevel;temperature;humidity
55759;BME280;41678;52.126;20.664;2023-03-03T00:04:24;100729.06;;;-2.88;87.75
55759;BME280;41678;52.126;20.664;2023-03-03T00:09:44;100719.34;;;-2.94;87.48
55759;BME280;41678;52.126;20.664;2023-03-03T00:15:15;100719.25;;;-2.95;87.99
55759;BME280;41678;52.126;20.664;2023-03-03T00:20:37;100713.19;;;-2.96;87.90
55759;BME280;41678;52.126;20.664;2023-03-03T00:25:58;100709.91;;;-2.93;87.76
55759;BME280;41678;52.126;20.664;2023-03-03T00:31:33;100698.56;;;-2.97;87.64
55759;BME280;41678;52.126;20.664;2023-03-03T00:36:55;100702.13;;;-2.95;87.81
55759;BME280;41678;52.126;20.664;2023-03-03T00:42:17;100702.19;;;-2.93;87.81
55759;BME280;41678;52.126;20.664;2023-03-03T00:47:37;100679.66;;;-2.97;87.59
55759;BME280;41678;52.126;20.664;2023-03-03T00:53:03;100679.78;;;-2.94;87.67
55759;BME280;41678;52.126;20.664;2023-03-03T00:58:24;100670.16;;;-2.99;87.97
55759;BME280;41678;52.126;20.664;2023-03-03T01:03:44;100657.75;;;-3.06;87.87
55759;BME280;41678;52.126;20.664;2023-03-03T01:09:04;100649.97;;;-3.07;87.50
55759;BME280;41678;52.126;20.664;2023-03-03T01:14:23;100654.38;;;-3.05;88.04
55759;BME280;41678;52.126;20.664;2023-03-03T01:19:44;100637.25;;;-3.04;87.67
55759;BME280;41678;52.126;20.664;2023-03-03T01:25:03;100631.38;;;-3.02;87.58
55759;BME280;41678;52.126;20.664;2023-03-03T01:30:25;100630.38;;;-3.04;87.93
55759;BME280;41678;52.126;20.664;2023-03-03T01:35:46;100625.22;;;-3.04;87.51
55759;BME280;41678;52.126;20.664;2023-03-03T01:41:06;100617.06;;;-3.13;87.61
55759;BME280;41678;52.126;20.664;2023-03-03T01:46:47;100609.38;;;-3.11;88.12
55759;BME280;41678;52.126;20.664;2023-03-03T01:52:42;100611.09;;;-3.12;87.88
55759;BME280;41678;52.126;20.664;2023-03-03T01:58:08;100607.63;;;-3.13;87.74
55759;BME280;41678;52.126;20.664;2023-03-03T02:03:29;100612.56;;;-3.17;87.72
55759;BME280;41678;52.126;20.664;2023-03-03T02:14:31;100611.53;;;-3.21;87.75
55759;BME280;41678;52.126;20.664;2023-03-03T02:20:11;100610.50;;;-3.24;87.43
55759;BME280;41678;52.126;20.664;2023-03-03T02:25:44;100614.78;;;-3.25;87.66
55759;BME280;41678;52.126;20.664;2023-03-03T02:31:12;100612.09;;;-3.27;87.76
55759;BME280;41678;52.126;20.664;2023-03-03T02:36:37;100615.34;;;-3.31;87.66
55759;BME280;41678;52.126;20.664;2023-03-03T02:42:06;100610.34;;;-3.28;87.81
55759;BME280;41678;52.126;20.664;2023-03-03T02:47:35;100597.31;;;-3.31;87.90
55759;BME280;41678;52.126;20.664;2023-03-03T02:52:54;100610.25;;;-3.29;87.73
55759;BME280;41678;52.126;20.664;2023-03-03T02:58:15;100610.34;;;-3.28;88.04
55759;BME280;41678;52.126;20.664;2023-03-03T03:03:34;100605.19;;;-3.28;87.74
55759;BME280;41678;52.126;20.664;2023-03-03T03:08:57;100613.78;;;-3.27;87.29
55759;BME280;41678;52.126;20.664;2023-03-03T03:14:17;100603.56;;;-3.25;87.53
55759;BME280;41678;52.126;20.664;2023-03-03T03:19:37;100603.72;;;-3.22;87.52
55759;BME280;41678;52.126;20.664;2023-03-03T03:24:57;100601.22;;;-3.21;87.72
55759;BME280;41678;52.126;20.664;2023-03-03T03:30:17;100606.44;;;-3.19;87.85
55759;BME280;41678;52.126;20.664;2023-03-03T03:35:39;100601.22;;;-3.21;87.60
55759;BME280;41678;52.126;20.664;2023-03-03T03:41:05;100593.56;;;-3.19;87.64
55759;BME280;41678;52.126;20.664;2023-03-03T03:46:26;100584.00;;;-3.22;88.09
55759;BME280;41678;52.126;20.664;2023-03-03T03:51:46;100598.56;;;-3.22;87.88
55759;BME280;41678;52.126;20.664;2023-03-03T03:57:09;100588.25;;;-3.22;88.03
55759;BME280;41678;52.126;20.664;2023-03-03T04:02:30;100578.84;;;-3.22;87.96
55759;BME280;41678;52.126;20.664;2023-03-03T04:07:49;100565.88;;;-3.23;88.01
55759;BME280;41678;52.126;20.664;2023-03-03T04:13:11;100571.19;;;-3.20;87.96
55759;BME280;41678;52.126;20.664;2023-03-03T04:18:31;100561.06;;;-3.17;88.01
55759;BME280;41678;52.126;20.664;2023-03-03T04:23:51;100555.72;;;-3.20;87.74
55759;BME280;41678;52.126;20.664;2023-03-03T04:29:12;100563.56;;;-3.19;88.03
55759;BME280;41678;52.126;20.664;2023-03-03T04:34:33;100543.91;;;-3.17;87.79
55759;BME280;41678;52.126;20.664;2023-03-03T04:39:53;100550.91;;;-3.14;87.77
55759;BME280;41678;52.126;20.664;2023-03-03T04:45:12;100546.78;;;-3.10;87.78
55759;BME280;41678;52.126;20.664;2023-03-03T04:50:32;100532.28;;;-3.08;88.15
55759;BME280;41678;52.126;20.664;2023-03-03T04:55:53;100529.53;;;-2.93;88.58
55759;BME280;41678;52.126;20.664;2023-03-03T05:01:14;100527.78;;;-2.94;88.49
55759;BME280;41678;52.126;20.664;2023-03-03T05:06:34;100526.50;;;-2.85;89.25
55759;BME280;41678;52.126;20.664;2023-03-03T05:11:54;100530.13;;;-2.81;88.99
55759;BME280;41678;52.126;20.664;2023-03-03T05:17:14;100531.19;;;-2.76;89.23
55759;BME280;41678;52.126;20.664;2023-03-03T05:22:33;100533.03;;;-2.73;89.65
55759;BME280;41678;52.126;20.664;2023-03-03T05:27:53;100538.34;;;-2.70;89.96
55759;BME280;41678;52.126;20.664;2023-03-03T05:33:14;100527.28;;;-2.67;90.67
55759;BME280;41678;52.126;20.664;2023-03-03T05:38:34;100540.06;;;-2.71;90.75
55759;BME280;41678;52.126;20.664;2023-03-03T05:43:54;100539.38;;;-2.66;90.77
55759;BME280;41678;52.126;20.664;2023-03-03T05:49:13;100542.75;;;-2.67;90.51
55759;BME280;41678;52.126;20.664;2023-03-03T05:54:32;100541.41;;;-2.59;91.11
55759;BME280;41678;52.126;20.664;2023-03-03T05:59:52;100537.66;;;-2.66;90.69
55759;BME280;41678;52.126;20.664;2023-03-03T06:05:11;100542.75;;;-2.67;90.64
55759;BME280;41678;52.126;20.664;2023-03-03T06:10:31;100531.78;;;-2.63;91.38
55759;BME280;41678;52.126;20.664;2023-03-03T06:15:55;100524.16;;;-2.60;91.28
55759;BME280;41678;52.126;20.664;2023-03-03T06:21:14;100536.59;;;-2.51;91.58
55759;BME280;41678;52.126;20.664;2023-03-03T06:26:34;100539.19;;;-2.51;91.68
55759;BME280;41678;52.126;20.664;2023-03-03T06:31:54;100535.66;;;-2.53;91.65
55759;BME280;41678;52.126;20.664;2023-03-03T06:37:13;100531.44;;;-2.51;91.95
55759;BME280;41678;52.126;20.664;2023-03-03T06:42:33;100532.34;;;-2.51;92.03
55759;BME280;41678;52.126;20.664;2023-03-03T06:47:52;100523.88;;;-2.48;91.77
55759;BME280;41678;52.126;20.664;2023-03-03T06:53:14;100542.41;;;-2.37;91.94
55759;BME280;41678;52.126;20.664;2023-03-03T06:58:34;100555.03;;;-2.24;92.66
55759;BME280;41678;52.126;20.664;2023-03-03T07:03:54;100547.16;;;-2.27;92.82
55759;BME280;41678;52.126;20.664;2023-03-03T07:09:20;100538.06;;;-2.19;92.96
55759;BME280;41678;52.126;20.664;2023-03-03T07:14:43;100526.09;;;-2.17;92.65
55759;BME280;41678;52.126;20.664;2023-03-03T07:20:17;100509.28;;;-2.08;92.78
55759;BME280;41678;52.126;20.664;2023-03-03T07:25:37;100504.38;;;-2.02;93.08
55759;BME280;41678;52.126;20.664;2023-03-03T07:30:57;100514.75;;;-2.01;93.26
55759;BME280;41678;52.126;20.664;2023-03-03T07:36:25;100508.63;;;-1.83;93.50
55759;BME280;41678;52.126;20.664;2023-03-03T07:41:46;100517.50;;;-1.76;93.92
55759;BME280;41678;52.126;20.664;2023-03-03T07:47:22;100531.75;;;-1.65;93.78
55759;BME280;41678;52.126;20.664;2023-03-03T07:52:49;100527.72;;;-1.58;94.80
55759;BME280;41678;52.126;20.664;2023-03-03T07:58:38;100539.31;;;-1.48;94.98
55759;BME280;41678;52.126;20.664;2023-03-03T08:03:58;100549.19;;;-1.38;95.17
55759;BME280;41678;52.126;20.664;2023-03-03T08:14:38;100542.53;;;-1.33;94.79
55759;BME280;41678;52.126;20.664;2023-03-03T08:19:58;100528.28;;;-1.23;95.59
55759;BME280;41678;52.126;20.664;2023-03-03T08:25:17;100528.34;;;-1.21;95.55
55759;BME280;41678;52.126;20.664;2023-03-03T08:30:37;100538.94;;;-1.15;95.94
55759;BME280;41678;52.126;20.664;2023-03-03T08:35:57;100549.50;;;-1.09;95.63
55759;BME280;41678;52.126;20.664;2023-03-03T08:41:16;100560.22;;;-1.00;95.68
55759;BME280;41678;52.126;20.664;2023-03-03T08:46:36;100559.78;;;-0.89;96.56
55759;BME280;41678;52.126;20.664;2023-03-03T08:51:57;100547.53;;;-0.93;96.95
55759;BME280;41678;52.126;20.664;2023-03-03T08:57:19;100555.53;;;-0.87;97.46
55759;BME280;41678;52.126;20.664;2023-03-03T09:02:38;100560.81;;;-0.84;97.00
55759;BME280;41678;52.126;20.664;2023-03-03T09:07:58;100592.84;;;-0.80;96.52
55759;BME280;41678;52.126;20.664;2023-03-03T09:13:19;100593.72;;;-0.80;97.06
55759;BME280;41678;52.126;20.664;2023-03-03T09:18:39;100600.66;;;-0.79;96.60
55759;BME280;41678;52.126;20.664;2023-03-03T09:23:59;100598.84;;;-0.81;97.38
55759;BME280;41678;52.126;20.664;2023-03-03T09:34:40;100569.50;;;-0.82;97.10
55759;BME280;41678;52.126;20.664;2023-03-03T09:40:18;100560.81;;;-0.84;97.06
55759;BME280;41678;52.126;20.664;2023-03-03T09:45:56;100565.41;;;-0.77;97.44
55759;BME280;41678;52.126;20.664;2023-03-03T09:57:50;100549.72;;;-0.81;97.90
55759;BME280;41678;52.126;20.664;2023-03-03T10:03:38;100547.81;;;-0.86;97.73
55759;BME280;41678;52.126;20.664;2023-03-03T10:15:36;100541.06;;;-0.82;96.90
55759;BME280;41678;52.126;20.664;2023-03-03T10:31:58;100539.44;;;-0.80;97.65
55759;BME280;41678;52.126;20.664;2023-03-03T10:37:30;100539.53;;;-0.77;96.99
55759;BME280;41678;52.126;20.664;2023-03-03T10:43:27;100530.72;;;-0.82;97.56
55759;BME280;41678;52.126;20.664;2023-03-03T10:49:30;100538.75;;;-0.76;97.30
55759;BME280;41678;52.126;20.664;2023-03-03T11:06:24;100546.31;;;-0.80;97.64
55759;BME280;41678;52.126;20.664;2023-03-03T11:11:56;100548.06;;;-0.79;97.71
55759;BME280;41678;52.126;20.664;2023-03-03T11:17:26;100552.34;;;-0.80;97.79
55759;BME280;41678;52.126;20.664;2023-03-03T11:28:51;100559.09;;;-0.83;97.57
55759;BME280;41678;52.126;20.664;2023-03-03T11:34:34;100557.47;;;-0.81;96.94
55759;BME280;41678;52.126;20.664;2023-03-03T11:40:01;100545.41;;;-0.81;97.09
55759;BME280;41678;52.126;20.664;2023-03-03T11:45:28;100543.66;;;-0.82;97.07
55759;BME280;41678;52.126;20.664;2023-03-03T11:56:27;100524.81;;;-0.79;97.15
55759;BME280;41678;52.126;20.664;2023-03-03T12:01:54;100518.75;;;-0.80;97.60
55759;BME280;41678;52.126;20.664;2023-03-03T12:12:43;100528.06;;;-0.83;97.51
55759;BME280;41678;52.126;20.664;2023-03-03T12:18:10;100529.78;;;-0.84;97.57
55759;BME280;41678;52.126;20.664;2023-03-03T12:35:06;100526.28;;;-0.86;97.23
55759;BME280;41678;52.126;20.664;2023-03-03T12:40:34;100530.63;;;-0.85;97.46
55759;BME280;41678;52.126;20.664;2023-03-03T12:51:40;100538.31;;;-0.87;97.11
55759;BME280;41678;52.126;20.664;2023-03-03T13:14:28;100521.00;;;-0.89;97.03
55759;BME280;41678;52.126;20.664;2023-03-03T13:19:57;100521.84;;;-0.89;97.13
55759;BME280;41678;52.126;20.664;2023-03-03T13:25:33;100515.56;;;-0.95;97.08
55759;BME280;41678;52.126;20.664;2023-03-03T13:31:00;100512.03;;;-0.97;97.04
55759;BME280;41678;52.126;20.664;2023-03-03T13:36:25;100512.34;;;-0.90;97.17
55759;BME280;41678;52.126;20.664;2023-03-03T13:47:27;100499.31;;;-0.93;96.90
55759;BME280;41678;52.126;20.664;2023-03-03T13:58:54;100496.06;;;-0.87;97.33
55759;BME280;41678;52.126;20.664;2023-03-03T14:04:50;100496.91;;;-0.88;96.72
55759;BME280;41678;52.126;20.664;2023-03-03T14:10:32;100489.00;;;-0.91;97.39
55759;BME280;41678;52.126;20.664;2023-03-03T14:16:03;100476.06;;;-0.91;97.61
55759;BME280;41678;52.126;20.664;2023-03-03T14:21:37;100488.97;;;-0.93;96.86
55759;BME280;41678;52.126;20.664;2023-03-03T14:26:59;100482.91;;;-0.93;97.23
55759;BME280;41678;52.126;20.664;2023-03-03T14:32:22;100478.56;;;-0.94;97.70
55759;BME280;41678;52.126;20.664;2023-03-03T14:37:45;100484.53;;;-0.95;97.04
55759;BME280;41678;52.126;20.664;2023-03-03T14:43:25;100480.28;;;-0.95;96.92
55759;BME280;41678;52.126;20.664;2023-03-03T14:48:51;100476.59;;;-1.00;97.23
55759;BME280;41678;52.126;20.664;2023-03-03T14:54:24;100489.78;;;-0.94;97.27
55759;BME280;41678;52.126;20.664;2023-03-03T14:59:55;100488.13;;;-0.92;96.64
55759;BME280;41678;52.126;20.664;2023-03-03T15:05:26;100488.78;;;-0.97;97.26
55759;BME280;41678;52.126;20.664;2023-03-03T15:10:46;100484.72;;;-0.91;96.90
55759;BME280;41678;52.126;20.664;2023-03-03T15:16:18;100474.31;;;-0.92;97.04
55759;BME280;41678;52.126;20.664;2023-03-03T15:27:43;100476.03;;;-0.93;96.97
55759;BME280;41678;52.126;20.664;2023-03-03T15:33:34;100473.38;;;-0.94;96.50
55759;BME280;41678;52.126;20.664;2023-03-03T15:45:00;100465.59;;;-0.96;96.90
55759;BME280;41678;52.126;20.664;2023-03-03T15:50:27;100475.97;;;-0.94;97.11
55759;BME280;41678;52.126;20.664;2023-03-03T16:08:09;100464.41;;;-1.04;96.69
55759;BME280;41678;52.126;20.664;2023-03-03T16:13:37;100464.34;;;-1.06;96.63
55759;BME280;41678;52.126;20.664;2023-03-03T16:30:46;100473.28;;;-0.97;96.98
55759;BME280;41678;52.126;20.664;2023-03-03T16:36:21;100464.66;;;-0.98;96.84
55759;BME280;41678;52.126;20.664;2023-03-03T16:41:53;100441.97;;;-1.05;96.75
55759;BME280;41678;52.126;20.664;2023-03-03T16:52:58;100460.13;;;-1.04;96.27
55759;BME280;41678;52.126;20.664;2023-03-03T17:04:00;100462.75;;;-1.02;96.44
55759;BME280;41678;52.126;20.664;2023-03-03T17:20:57;100455.81;;;-1.03;96.85
55759;BME280;41678;52.126;20.664;2023-03-03T17:26:32;100463.53;;;-1.05;96.83
55759;BME280;41678;52.126;20.664;2023-03-03T17:32:08;100463.34;;;-1.09;96.92
55759;BME280;41678;52.126;20.664;2023-03-03T17:37:57;100467.81;;;-1.05;96.88
55759;BME280;41678;52.126;20.664;2023-03-03T17:43:26;100458.00;;;-1.14;96.45
55759;BME280;41678;52.126;20.664;2023-03-03T17:49:04;100447.56;;;-1.17;96.87
55759;BME280;41678;52.126;20.664;2023-03-03T18:11:22;100438.34;;;-1.10;96.20
55759;BME280;41678;52.126;20.664;2023-03-03T18:22:31;100432.25;;;-1.11;96.44
55759;BME280;41678;52.126;20.664;2023-03-03T18:33:40;100415.25;;;-1.06;96.60
55759;BME280;41678;52.126;20.664;2023-03-03T18:39:02;100408.28;;;-1.07;96.56
55759;BME280;41678;52.126;20.664;2023-03-03T18:44:27;100427.50;;;-1.00;96.15
55759;BME280;41678;52.126;20.664;2023-03-03T18:50:13;100414.66;;;-0.98;95.97
55759;BME280;41678;52.126;20.664;2023-03-03T18:55:40;100407.78;;;-0.98;96.53
55759;BME280;41678;52.126;20.664;2023-03-03T19:11:55;100402.72;;;-0.95;96.27
55759;BME280;41678;52.126;20.664;2023-03-03T19:23:04;100390.72;;;-0.93;95.82
55759;BME280;41678;52.126;20.664;2023-03-03T19:28:41;100389.06;;;-0.91;96.25
55759;BME280;41678;52.126;20.664;2023-03-03T19:34:21;100387.31;;;-0.92;95.93
55759;BME280;41678;52.126;20.664;2023-03-03T19:40:07;100378.91;;;-0.86;95.92
55759;BME280;41678;52.126;20.664;2023-03-03T19:45:33;100367.75;;;-0.85;96.01
55759;BME280;41678;52.126;20.664;2023-03-03T20:07:28;100339.25;;;-0.87;96.08
55759;BME280;41678;52.126;20.664;2023-03-03T20:41:28;100288.13;;;-0.69;95.19
55759;BME280;41678;52.126;20.664;2023-03-03T21:05:17;100277.97;;;-0.63;95.78
55759;BME280;41678;52.126;20.664;2023-03-03T21:10:36;100266.94;;;-0.59;95.34
55759;BME280;41678;52.126;20.664;2023-03-03T21:16:02;100273.75;;;-0.61;95.59
55759;BME280;41678;52.126;20.664;2023-03-03T21:21:21;100260.97;;;-0.57;95.48
55759;BME280;41678;52.126;20.664;2023-03-03T21:26:45;100244.69;;;-0.54;95.51
55759;BME280;41678;52.126;20.664;2023-03-03T21:32:07;100232.56;;;-0.55;95.74
55759;BME280;41678;52.126;20.664;2023-03-03T21:43:47;100226.72;;;-0.49;95.31
55759;BME280;41678;52.126;20.664;2023-03-03T21:49:07;100215.50;;;-0.50;95.82
55759;BME280;41678;52.126;20.664;2023-03-03T21:54:27;100197.28;;;-0.53;95.78
55759;BME280;41678;52.126;20.664;2023-03-03T21:59:46;100209.53;;;-0.47;95.41
55759;BME280;41678;52.126;20.664;2023-03-03T22:05:06;100206.03;;;-0.49;95.83
55759;BME280;41678;52.126;20.664;2023-03-03T22:10:26;100206.22;;;-0.43;95.53
55759;BME280;41678;52.126;20.664;2023-03-03T22:15:46;100196.84;;;-0.39;95.21
55759;BME280;41678;52.126;20.664;2023-03-03T22:21:06;100198.53;;;-0.41;95.71
55759;BME280;41678;52.126;20.664;2023-03-03T22:26:25;100184.75;;;-0.40;95.62
55759;BME280;41678;52.126;20.664;2023-03-03T22:31:45;100173.50;;;-0.41;95.75
55759;BME280;41678;52.126;20.664;2023-03-03T22:37:04;100156.31;;;-0.39;95.52
55759;BME280;41678;52.126;20.664;2023-03-03T22:42:24;100145.97;;;-0.39;95.47
55759;BME280;41678;52.126;20.664;2023-03-03T22:47:44;100141.78;;;-0.35;95.38
55759;BME280;41678;52.126;20.664;2023-03-03T22:53:03;100133.09;;;-0.37;95.75
55759;BME280;41678;52.126;20.664;2023-03-03T22:58:23;100127.16;;;-0.35;95.79
55759;BME280;41678;52.126;20.664;2023-03-03T23:03:45;100118.47;;;-0.37;95.39
55759;BME280;41678;52.126;20.664;2023-03-03T23:09:05;100105.56;;;-0.35;95.76
55759;BME280;41678;52.126;20.664;2023-03-03T23:14:26;100097.84;;;-0.34;95.00
55759;BME280;41678;52.126;20.664;2023-03-03T23:19:46;100093.53;;;-0.35;95.59
55759;BME280;41678;52.126;20.664;2023-03-03T23:25:07;100092.69;;;-0.34;95.55
55759;BME280;41678;52.126;20.664;2023-03-03T23:30:27;100089.44;;;-0.26;95.80
55759;BME280;41678;52.126;20.664;2023-03-03T23:35:46;100087.75;;;-0.24;95.62
55759;BME280;41678;52.126;20.664;2023-03-03T23:41:08;100075.66;;;-0.25;95.70
55759;BME280;41678;52.126;20.664;2023-03-03T23:46:28;100059.13;;;-0.31;95.74
55759;BME280;41678;52.126;20.664;2023-03-03T23:51:47;100060.94;;;-0.28;95.48
55759;BME280;41678;52.126;20.664;2023-03-03T23:57:06;100045.44;;;-0.26;95.22
